Terminal Aerodrome Forecast
Issued by NWS Pueblo, CO

Home | Current Version | Previous Version | Text Only | Print | Product List | Glossary On
Versions: 1 2 3 4 5 6 7 8 9 10 11 12 13 14 15
000
FTUS45 KPUB 301120
TAFCOS
TAF
KCOS 301120Z 3012/3112 36007KT P6SM SKC
     FM301700 17012KT P6SM FEW150
     FM302000 15012KT P6SM VCTS SCT060CB SCT150
     FM310000 35014KT P6SM VCTS SCT060CB BKN100
     FM310300 35010KT P6SM FEW060 SCT100
     FM310900 33014KT P6SM FEW100=

USA.gov is the U.S. government's official web portal to all federal, state and local government web resources and services.